KPRG

Edgar County Airport

Paris, Illinois, USA
METAR KPRG 110155Z AUTO 00000KT 3/4SM BR OVC002 M10/M11 A3027 RMK AO2 T11001112
Observed Flight Rules
Dec-11 @ 01:55 UTC (34 minutes ago) Instrument Flight Rules
Visibility Clouds Conditions
3/4 miles
  • Overcast at 200' AGL
  • Mist
Temperatures Readings
Current -10°C / 14°F
Dewpoint -11°C / 12°F
Humidity 92%
Altimeter 30.27" Hg
Pressure 1025 hPa
Elevation 199
METAR KPRG 110155Z AUTO 00000KT 3/4SM BR OVC002 M10/M11 A3027 RMK AO2 T11001112
Observed Flight Rules
Dec-11 @ 01:55 UTC
(34 minutes ago)
LIFR
Clouds
  • Overcast at 200' AGL
Conditions
  • Mist
Temperature Dewpoint
-10°C / 14°F -11°C / 12°F
Humidity Altimeter Pressure
92% 30.27" Hg 1025 hPa